sensor_id;sensor_type;location;lat;lon;timestamp;P1;durP1;ratioP1;P2;durP2;ratioP2
36205;SDS011;22242;48.796;9.930;2023-10-13T00:01:55;6.78;;;3.40;;
36205;SDS011;22242;48.796;9.930;2023-10-13T00:04:24;8.93;;;3.20;;
36205;SDS011;22242;48.796;9.930;2023-10-13T00:06:51;6.53;;;2.65;;
36205;SDS011;22242;48.796;9.930;2023-10-13T00:09:18;7.10;;;2.70;;
36205;SDS011;22242;48.796;9.930;2023-10-13T00:11:50;8.93;;;3.22;;
36205;SDS011;22242;48.796;9.930;2023-10-13T00:14:19;12.05;;;2.97;;
36205;SDS011;22242;48.796;9.930;2023-10-13T00:16:47;4.50;;;2.70;;
36205;SDS011;22242;48.796;9.930;2023-10-13T00:19:30;7.22;;;2.85;;
36205;SDS011;22242;48.796;9.930;2023-10-13T00:22:04;5.88;;;2.60;;
36205;SDS011;22242;48.796;9.930;2023-10-13T00:24:36;7.05;;;2.80;;
36205;SDS011;22242;48.796;9.930;2023-10-13T00:27:09;6.55;;;3.10;;
36205;SDS011;22242;48.796;9.930;2023-10-13T00:29:53;7.65;;;3.08;;
36205;SDS011;22242;48.796;9.930;2023-10-13T00:32:41;9.00;;;2.95;;
36205;SDS011;22242;48.796;9.930;2023-10-13T00:35:11;11.82;;;3.10;;
36205;SDS011;22242;48.796;9.930;2023-10-13T00:37:50;9.00;;;2.67;;
36205;SDS011;22242;48.796;9.930;2023-10-13T00:40:19;7.03;;;2.85;;
36205;SDS011;22242;48.796;9.930;2023-10-13T00:43:08;7.85;;;3.20;;
36205;SDS011;22242;48.796;9.930;2023-10-13T00:45:55;7.38;;;3.13;;
36205;SDS011;22242;48.796;9.930;2023-10-13T00:48:24;6.07;;;2.97;;
36205;SDS011;22242;48.796;9.930;2023-10-13T00:50:57;14.80;;;3.30;;
36205;SDS011;22242;48.796;9.930;2023-10-13T00:53:28;7.78;;;3.40;;
36205;SDS011;22242;48.796;9.930;2023-10-13T00:55:59;12.23;;;3.17;;
36205;SDS011;22242;48.796;9.930;2023-10-13T00:58:32;9.80;;;3.05;;
36205;SDS011;22242;48.796;9.930;2023-10-13T01:00:59;9.13;;;3.22;;
36205;SDS011;22242;48.796;9.930;2023-10-13T01:03:44;6.97;;;2.92;;
36205;SDS011;22242;48.796;9.930;2023-10-13T01:06:12;14.25;;;3.78;;
36205;SDS011;22242;48.796;9.930;2023-10-13T01:08:39;6.15;;;2.75;;
36205;SDS011;22242;48.796;9.930;2023-10-13T01:11:09;5.15;;;3.00;;
36205;SDS011;22242;48.796;9.930;2023-10-13T01:13:39;7.32;;;2.85;;
36205;SDS011;22242;48.796;9.930;2023-10-13T01:16:06;9.80;;;3.40;;
36205;SDS011;22242;48.796;9.930;2023-10-13T01:21:08;4.28;;;2.50;;
36205;SDS011;22242;48.796;9.930;2023-10-13T01:23:37;10.15;;;3.50;;
36205;SDS011;22242;48.796;9.930;2023-10-13T01:26:08;9.73;;;2.83;;
36205;SDS011;22242;48.796;9.930;2023-10-13T01:28:35;10.35;;;3.08;;
36205;SDS011;22242;48.796;9.930;2023-10-13T01:31:10;7.05;;;3.20;;
36205;SDS011;22242;48.796;9.930;2023-10-13T01:33:38;8.07;;;3.75;;
36205;SDS011;22242;48.796;9.930;2023-10-13T01:36:05;6.90;;;2.95;;
36205;SDS011;22242;48.796;9.930;2023-10-13T01:38:37;6.05;;;2.90;;
36205;SDS011;22242;48.796;9.930;2023-10-13T01:41:06;8.55;;;2.85;;
36205;SDS011;22242;48.796;9.930;2023-10-13T01:43:34;9.52;;;3.67;;
36205;SDS011;22242;48.796;9.930;2023-10-13T01:46:01;5.80;;;3.03;;
36205;SDS011;22242;48.796;9.930;2023-10-13T01:48:29;5.07;;;2.85;;
36205;SDS011;22242;48.796;9.930;2023-10-13T01:50:58;9.18;;;3.20;;
36205;SDS011;22242;48.796;9.930;2023-10-13T01:53:27;6.72;;;3.10;;
36205;SDS011;22242;48.796;9.930;2023-10-13T01:55:56;6.45;;;2.67;;
36205;SDS011;22242;48.796;9.930;2023-10-13T01:58:23;8.68;;;2.83;;
36205;SDS011;22242;48.796;9.930;2023-10-13T02:00:51;5.90;;;2.78;;
36205;SDS011;22242;48.796;9.930;2023-10-13T02:03:17;7.15;;;2.53;;
36205;SDS011;22242;48.796;9.930;2023-10-13T02:05:46;6.40;;;2.83;;
36205;SDS011;22242;48.796;9.930;2023-10-13T02:08:14;8.77;;;3.08;;
36205;SDS011;22242;48.796;9.930;2023-10-13T02:10:48;5.88;;;2.75;;
36205;SDS011;22242;48.796;9.930;2023-10-13T02:13:16;8.07;;;3.28;;
36205;SDS011;22242;48.796;9.930;2023-10-13T02:15:44;10.18;;;3.10;;
36205;SDS011;22242;48.796;9.930;2023-10-13T02:18:12;10.15;;;3.20;;
36205;SDS011;22242;48.796;9.930;2023-10-13T02:20:46;6.95;;;2.65;;
36205;SDS011;22242;48.796;9.930;2023-10-13T02:25:46;6.70;;;3.22;;
36205;SDS011;22242;48.796;9.930;2023-10-13T02:28:13;7.25;;;3.17;;
36205;SDS011;22242;48.796;9.930;2023-10-13T02:30:42;5.25;;;2.92;;
36205;SDS011;22242;48.796;9.930;2023-10-13T02:33:11;7.80;;;2.97;;
36205;SDS011;22242;48.796;9.930;2023-10-13T02:35:39;8.57;;;3.40;;
36205;SDS011;22242;48.796;9.930;2023-10-13T02:38:15;7.07;;;3.08;;
36205;SDS011;22242;48.796;9.930;2023-10-13T02:40:51;5.75;;;3.13;;
36205;SDS011;22242;48.796;9.930;2023-10-13T02:43:19;11.15;;;2.80;;
36205;SDS011;22242;48.796;9.930;2023-10-13T02:45:55;10.05;;;3.50;;
36205;SDS011;22242;48.796;9.930;2023-10-13T02:48:24;8.68;;;3.75;;
36205;SDS011;22242;48.796;9.930;2023-10-13T02:50:56;9.35;;;3.13;;
36205;SDS011;22242;48.796;9.930;2023-10-13T02:53:27;7.35;;;2.88;;
36205;SDS011;22242;48.796;9.930;2023-10-13T02:55:54;10.15;;;3.22;;
36205;SDS011;22242;48.796;9.930;2023-10-13T02:58:25;8.25;;;3.22;;
36205;SDS011;22242;48.796;9.930;2023-10-13T03:01:08;8.25;;;3.20;;
36205;SDS011;22242;48.796;9.930;2023-10-13T03:03:43;9.63;;;3.25;;
36205;SDS011;22242;48.796;9.930;2023-10-13T03:06:13;8.70;;;3.30;;
36205;SDS011;22242;48.796;9.930;2023-10-13T03:08:41;6.75;;;3.13;;
36205;SDS011;22242;48.796;9.930;2023-10-13T03:11:08;5.75;;;3.10;;
36205;SDS011;22242;48.796;9.930;2023-10-13T03:13:36;8.43;;;3.13;;
36205;SDS011;22242;48.796;9.930;2023-10-13T03:16:12;7.40;;;3.28;;
36205;SDS011;22242;48.796;9.930;2023-10-13T03:18:41;9.25;;;3.30;;
36205;SDS011;22242;48.796;9.930;2023-10-13T03:21:19;10.20;;;3.60;;
36205;SDS011;22242;48.796;9.930;2023-10-13T03:23:57;5.38;;;3.10;;
36205;SDS011;22242;48.796;9.930;2023-10-13T03:26:31;10.18;;;3.38;;
36205;SDS011;22242;48.796;9.930;2023-10-13T03:29:03;6.25;;;2.85;;
36205;SDS011;22242;48.796;9.930;2023-10-13T03:31:39;9.07;;;3.00;;
36205;SDS011;22242;48.796;9.930;2023-10-13T03:34:10;7.50;;;2.83;;
36205;SDS011;22242;48.796;9.930;2023-10-13T03:36:38;9.45;;;3.13;;
36205;SDS011;22242;48.796;9.930;2023-10-13T03:39:23;7.40;;;3.28;;
36205;SDS011;22242;48.796;9.930;2023-10-13T03:41:55;4.38;;;3.25;;
36205;SDS011;22242;48.796;9.930;2023-10-13T03:44:24;12.07;;;3.25;;
36205;SDS011;22242;48.796;9.930;2023-10-13T03:46:57;5.82;;;3.45;;
36205;SDS011;22242;48.796;9.930;2023-10-13T03:49:34;7.78;;;3.55;;
36205;SDS011;22242;48.796;9.930;2023-10-13T03:52:03;7.82;;;3.90;;
36205;SDS011;22242;48.796;9.930;2023-10-13T03:54:31;7.13;;;3.80;;
36205;SDS011;22242;48.796;9.930;2023-10-13T03:57:00;6.47;;;3.55;;
36205;SDS011;22242;48.796;9.930;2023-10-13T03:59:36;9.07;;;3.75;;
36205;SDS011;22242;48.796;9.930;2023-10-13T04:02:06;9.40;;;3.95;;
36205;SDS011;22242;48.796;9.930;2023-10-13T04:04:43;9.00;;;4.70;;
36205;SDS011;22242;48.796;9.930;2023-10-13T04:07:14;10.95;;;4.43;;
36205;SDS011;22242;48.796;9.930;2023-10-13T04:10:06;9.80;;;4.00;;
36205;SDS011;22242;48.796;9.930;2023-10-13T04:13:04;9.13;;;4.00;;
36205;SDS011;22242;48.796;9.930;2023-10-13T04:16:03;8.38;;;4.00;;
36205;SDS011;22242;48.796;9.930;2023-10-13T04:19:01;8.15;;;3.95;;
36205;SDS011;22242;48.796;9.930;2023-10-13T04:21:35;8.02;;;3.75;;
36205;SDS011;22242;48.796;9.930;2023-10-13T04:24:20;7.85;;;4.25;;
36205;SDS011;22242;48.796;9.930;2023-10-13T04:27:04;7.63;;;4.03;;
36205;SDS011;22242;48.796;9.930;2023-10-13T04:29:49;7.45;;;4.20;;
36205;SDS011;22242;48.796;9.930;2023-10-13T04:32:27;8.60;;;4.47;;
36205;SDS011;22242;48.796;9.930;2023-10-13T04:35:00;5.18;;;4.00;;
36205;SDS011;22242;48.796;9.930;2023-10-13T04:37:36;8.90;;;4.15;;
36205;SDS011;22242;48.796;9.930;2023-10-13T04:40:14;8.93;;;4.05;;
36205;SDS011;22242;48.796;9.930;2023-10-13T04:42:44;12.25;;;4.43;;
36205;SDS011;22242;48.796;9.930;2023-10-13T04:45:15;10.77;;;4.47;;
36205;SDS011;22242;48.796;9.930;2023-10-13T04:48:04;8.27;;;4.20;;
36205;SDS011;22242;48.796;9.930;2023-10-13T04:50:59;8.88;;;4.60;;
36205;SDS011;22242;48.796;9.930;2023-10-13T04:53:44;13.48;;;4.43;;
36205;SDS011;22242;48.796;9.930;2023-10-13T04:56:29;8.95;;;4.25;;
36205;SDS011;22242;48.796;9.930;2023-10-13T04:59:25;10.68;;;4.70;;
36205;SDS011;22242;48.796;9.930;2023-10-13T05:02:02;9.52;;;4.20;;
36205;SDS011;22242;48.796;9.930;2023-10-13T05:04:47;6.85;;;4.15;;
36205;SDS011;22242;48.796;9.930;2023-10-13T05:07:33;8.52;;;4.15;;
36205;SDS011;22242;48.796;9.930;2023-10-13T05:10:29;9.23;;;4.05;;
36205;SDS011;22242;48.796;9.930;2023-10-13T05:13:14;9.43;;;4.15;;
36205;SDS011;22242;48.796;9.930;2023-10-13T05:15:59;11.27;;;4.80;;
36205;SDS011;22242;48.796;9.930;2023-10-13T05:18:44;10.18;;;4.20;;
36205;SDS011;22242;48.796;9.930;2023-10-13T05:21:37;13.15;;;4.60;;
36205;SDS011;22242;48.796;9.930;2023-10-13T05:24:23;9.35;;;4.53;;
36205;SDS011;22242;48.796;9.930;2023-10-13T05:27:08;11.10;;;4.72;;
36205;SDS011;22242;48.796;9.930;2023-10-13T05:29:52;11.25;;;5.47;;
36205;SDS011;22242;48.796;9.930;2023-10-13T05:32:37;8.30;;;3.88;;
36205;SDS011;22242;48.796;9.930;2023-10-13T05:35:22;11.57;;;3.90;;
36205;SDS011;22242;48.796;9.930;2023-10-13T05:38:07;13.15;;;4.22;;
36205;SDS011;22242;48.796;9.930;2023-10-13T05:40:53;7.95;;;4.05;;
36205;SDS011;22242;48.796;9.930;2023-10-13T05:43:38;12.70;;;4.93;;
36205;SDS011;22242;48.796;9.930;2023-10-13T05:46:22;8.93;;;4.53;;
36205;SDS011;22242;48.796;9.930;2023-10-13T05:49:14;11.18;;;4.50;;
36205;SDS011;22242;48.796;9.930;2023-10-13T05:52:06;7.93;;;4.18;;
36205;SDS011;22242;48.796;9.930;2023-10-13T05:54:44;8.55;;;4.63;;
36205;SDS011;22242;48.796;9.930;2023-10-13T05:57:40;8.95;;;4.75;;
36205;SDS011;22242;48.796;9.930;2023-10-13T06:00:24;8.20;;;3.83;;
36205;SDS011;22242;48.796;9.930;2023-10-13T06:03:09;10.60;;;3.53;;
36205;SDS011;22242;48.796;9.930;2023-10-13T06:05:53;9.73;;;3.20;;
36205;SDS011;22242;48.796;9.930;2023-10-13T06:08:38;13.90;;;3.28;;
36205;SDS011;22242;48.796;9.930;2023-10-13T06:11:23;5.75;;;3.13;;
36205;SDS011;22242;48.796;9.930;2023-10-13T06:14:09;8.90;;;3.60;;
36205;SDS011;22242;48.796;9.930;2023-10-13T06:16:53;10.63;;;3.50;;
36205;SDS011;22242;48.796;9.930;2023-10-13T06:19:38;8.85;;;3.30;;
36205;SDS011;22242;48.796;9.930;2023-10-13T06:22:24;5.88;;;3.17;;
36205;SDS011;22242;48.796;9.930;2023-10-13T06:25:14;8.77;;;3.40;;
36205;SDS011;22242;48.796;9.930;2023-10-13T06:27:59;10.98;;;4.05;;
36205;SDS011;22242;48.796;9.930;2023-10-13T06:30:54;9.63;;;4.60;;
36205;SDS011;22242;48.796;9.930;2023-10-13T06:33:23;11.85;;;4.40;;
36205;SDS011;22242;48.796;9.930;2023-10-13T06:35:55;10.82;;;4.13;;
36205;SDS011;22242;48.796;9.930;2023-10-13T06:38:23;8.93;;;4.82;;
36205;SDS011;22242;48.796;9.930;2023-10-13T06:40:56;11.00;;;5.07;;
36205;SDS011;22242;48.796;9.930;2023-10-13T06:43:23;7.68;;;4.25;;
36205;SDS011;22242;48.796;9.930;2023-10-13T06:45:50;8.63;;;4.45;;
36205;SDS011;22242;48.796;9.930;2023-10-13T06:48:27;7.88;;;3.90;;
36205;SDS011;22242;48.796;9.930;2023-10-13T06:50:58;13.80;;;4.93;;
36205;SDS011;22242;48.796;9.930;2023-10-13T06:53:30;8.88;;;4.65;;
36205;SDS011;22242;48.796;9.930;2023-10-13T06:56:02;11.52;;;5.32;;
36205;SDS011;22242;48.796;9.930;2023-10-13T06:58:32;11.00;;;4.68;;
36205;SDS011;22242;48.796;9.930;2023-10-13T07:00:59;10.65;;;4.85;;
36205;SDS011;22242;48.796;9.930;2023-10-13T07:03:28;8.02;;;4.38;;
36205;SDS011;22242;48.796;9.930;2023-10-13T07:05:55;8.18;;;3.90;;
36205;SDS011;22242;48.796;9.930;2023-10-13T07:08:24;13.75;;;4.63;;
36205;SDS011;22242;48.796;9.930;2023-10-13T07:10:51;5.55;;;3.80;;
36205;SDS011;22242;48.796;9.930;2023-10-13T07:13:27;12.73;;;4.50;;
36205;SDS011;22242;48.796;9.930;2023-10-13T07:15:55;5.88;;;3.40;;
36205;SDS011;22242;48.796;9.930;2023-10-13T07:18:28;8.25;;;4.00;;
36205;SDS011;22242;48.796;9.930;2023-10-13T07:21:08;7.85;;;3.55;;
36205;SDS011;22242;48.796;9.930;2023-10-13T07:23:36;4.97;;;2.95;;
36205;SDS011;22242;48.796;9.930;2023-10-13T07:26:04;11.15;;;3.00;;
36205;SDS011;22242;48.796;9.930;2023-10-13T07:28:33;7.25;;;3.30;;
36205;SDS011;22242;48.796;9.930;2023-10-13T07:31:02;6.93;;;3.22;;
36205;SDS011;22242;48.796;9.930;2023-10-13T07:33:42;6.95;;;4.53;;
36205;SDS011;22242;48.796;9.930;2023-10-13T07:36:09;9.00;;;4.85;;
36205;SDS011;22242;48.796;9.930;2023-10-13T07:38:43;8.32;;;4.43;;
36205;SDS011;22242;48.796;9.930;2023-10-13T07:41:14;7.47;;;4.60;;
36205;SDS011;22242;48.796;9.930;2023-10-13T07:43:42;7.65;;;4.60;;
36205;SDS011;22242;48.796;9.930;2023-10-13T07:46:11;10.25;;;4.78;;
36205;SDS011;22242;48.796;9.930;2023-10-13T07:48:38;10.05;;;4.70;;
36205;SDS011;22242;48.796;9.930;2023-10-13T07:51:12;8.70;;;4.53;;
36205;SDS011;22242;48.796;9.930;2023-10-13T07:53:41;5.68;;;4.28;;
36205;SDS011;22242;48.796;9.930;2023-10-13T07:56:08;6.25;;;3.80;;
36205;SDS011;22242;48.796;9.930;2023-10-13T07:58:37;5.28;;;2.92;;
36205;SDS011;22242;48.796;9.930;2023-10-13T08:01:13;8.05;;;3.30;;
36205;SDS011;22242;48.796;9.930;2023-10-13T08:03:44;7.35;;;3.30;;
36205;SDS011;22242;48.796;9.930;2023-10-13T08:06:12;7.60;;;3.42;;
36205;SDS011;22242;48.796;9.930;2023-10-13T08:08:48;8.45;;;3.40;;
36205;SDS011;22242;48.796;9.930;2023-10-13T08:13:53;8.75;;;2.90;;
36205;SDS011;22242;48.796;9.930;2023-10-13T08:16:21;8.40;;;3.38;;
36205;SDS011;22242;48.796;9.930;2023-10-13T08:18:49;5.55;;;3.05;;
36205;SDS011;22242;48.796;9.930;2023-10-13T08:21:18;6.97;;;2.70;;
36205;SDS011;22242;48.796;9.930;2023-10-13T08:23:48;7.25;;;3.65;;
36205;SDS011;22242;48.796;9.930;2023-10-13T08:26:32;5.13;;;3.08;;
36205;SDS011;22242;48.796;9.930;2023-10-13T08:29:19;9.15;;;3.40;;
36205;SDS011;22242;48.796;9.930;2023-10-13T08:32:04;6.97;;;3.78;;
36205;SDS011;22242;48.796;9.930;2023-10-13T08:34:40;5.65;;;3.50;;
36205;SDS011;22242;48.796;9.930;2023-10-13T08:37:27;6.10;;;3.50;;
36205;SDS011;22242;48.796;9.930;2023-10-13T08:39:55;7.05;;;2.65;;
36205;SDS011;22242;48.796;9.930;2023-10-13T08:42:47;8.13;;;3.00;;
36205;SDS011;22242;48.796;9.930;2023-10-13T08:45:36;6.97;;;3.13;;
36205;SDS011;22242;48.796;9.930;2023-10-13T08:48:25;8.88;;;2.58;;
36205;SDS011;22242;48.796;9.930;2023-10-13T08:50:58;4.00;;;2.38;;
36205;SDS011;22242;48.796;9.930;2023-10-13T08:53:37;9.75;;;2.70;;
36205;SDS011;22242;48.796;9.930;2023-10-13T08:56:17;9.68;;;2.83;;
36205;SDS011;22242;48.796;9.930;2023-10-13T08:58:58;5.43;;;2.30;;
36205;SDS011;22242;48.796;9.930;2023-10-13T09:01:32;12.98;;;2.40;;
36205;SDS011;22242;48.796;9.930;2023-10-13T09:04:02;8.70;;;2.45;;
36205;SDS011;22242;48.796;9.930;2023-10-13T09:06:44;4.82;;;2.35;;
36205;SDS011;22242;48.796;9.930;2023-10-13T09:09:24;4.15;;;1.90;;
36205;SDS011;22242;48.796;9.930;2023-10-13T09:12:00;6.22;;;2.00;;
36205;SDS011;22242;48.796;9.930;2023-10-13T09:14:35;3.70;;;2.10;;
36205;SDS011;22242;48.796;9.930;2023-10-13T09:17:05;6.90;;;2.55;;
36205;SDS011;22242;48.796;9.930;2023-10-13T09:19:51;5.03;;;2.50;;
36205;SDS011;22242;48.796;9.930;2023-10-13T09:22:22;6.80;;;2.90;;
36205;SDS011;22242;48.796;9.930;2023-10-13T09:24:57;3.70;;;2.20;;
36205;SDS011;22242;48.796;9.930;2023-10-13T09:27:25;5.93;;;2.42;;
36205;SDS011;22242;48.796;9.930;2023-10-13T09:29:56;5.18;;;2.65;;
36205;SDS011;22242;48.796;9.930;2023-10-13T09:32:26;5.53;;;2.58;;
36205;SDS011;22242;48.796;9.930;2023-10-13T09:34:59;5.05;;;2.60;;
36205;SDS011;22242;48.796;9.930;2023-10-13T09:37:27;5.68;;;2.88;;
36205;SDS011;22242;48.796;9.930;2023-10-13T09:39:53;5.07;;;2.30;;
36205;SDS011;22242;48.796;9.930;2023-10-13T09:42:31;5.53;;;2.13;;
36205;SDS011;22242;48.796;9.930;2023-10-13T09:44:59;8.65;;;2.38;;
36205;SDS011;22242;48.796;9.930;2023-10-13T09:47:29;9.60;;;2.42;;
36205;SDS011;22242;48.796;9.930;2023-10-13T09:50:02;4.10;;;2.05;;
36205;SDS011;22242;48.796;9.930;2023-10-13T09:52:38;5.10;;;2.40;;
36205;SDS011;22242;48.796;9.930;2023-10-13T09:55:11;5.78;;;2.10;;
36205;SDS011;22242;48.796;9.930;2023-10-13T09:57:47;5.70;;;2.35;;
36205;SDS011;22242;48.796;9.930;2023-10-13T10:00:23;8.23;;;2.83;;
36205;SDS011;22242;48.796;9.930;2023-10-13T10:03:09;7.07;;;2.30;;
36205;SDS011;22242;48.796;9.930;2023-10-13T10:05:55;7.43;;;2.70;;
36205;SDS011;22242;48.796;9.930;2023-10-13T10:08:29;7.47;;;2.40;;
36205;SDS011;22242;48.796;9.930;2023-10-13T10:11:01;4.97;;;2.30;;
36205;SDS011;22242;48.796;9.930;2023-10-13T10:13:42;6.15;;;2.50;;
36205;SDS011;22242;48.796;9.930;2023-10-13T10:16:27;4.40;;;2.45;;
36205;SDS011;22242;48.796;9.930;2023-10-13T10:19:01;5.05;;;2.70;;
36205;SDS011;22242;48.796;9.930;2023-10-13T10:21:32;6.60;;;2.67;;
36205;SDS011;22242;48.796;9.930;2023-10-13T10:24:01;7.55;;;2.80;;
36205;SDS011;22242;48.796;9.930;2023-10-13T10:26:49;6.38;;;2.53;;
36205;SDS011;22242;48.796;9.930;2023-10-13T10:29:19;6.25;;;2.83;;
36205;SDS011;22242;48.796;9.930;2023-10-13T10:31:46;4.03;;;2.45;;
36205;SDS011;22242;48.796;9.930;2023-10-13T10:34:14;6.57;;;2.65;;
36205;SDS011;22242;48.796;9.930;2023-10-13T10:36:46;4.22;;;2.53;;
36205;SDS011;22242;48.796;9.930;2023-10-13T10:39:13;9.13;;;3.90;;
36205;SDS011;22242;48.796;9.930;2023-10-13T10:41:43;7.70;;;3.58;;
36205;SDS011;22242;48.796;9.930;2023-10-13T10:44:17;5.53;;;2.60;;
36205;SDS011;22242;48.796;9.930;2023-10-13T10:47:08;7.80;;;3.00;;
36205;SDS011;22242;48.796;9.930;2023-10-13T10:49:45;11.80;;;3.10;;
36205;SDS011;22242;48.796;9.930;2023-10-13T10:52:15;3.63;;;2.20;;
36205;SDS011;22242;48.796;9.930;2023-10-13T10:54:44;7.50;;;2.47;;
36205;SDS011;22242;48.796;9.930;2023-10-13T10:59:45;4.65;;;2.40;;
36205;SDS011;22242;48.796;9.930;2023-10-13T11:02:17;4.60;;;2.50;;
36205;SDS011;22242;48.796;9.930;2023-10-13T11:04:52;5.90;;;2.63;;
36205;SDS011;22242;48.796;9.930;2023-10-13T11:07:22;9.20;;;2.63;;
36205;SDS011;22242;48.796;9.930;2023-10-13T11:09:49;5.75;;;2.45;;
36205;SDS011;22242;48.796;9.930;2023-10-13T11:15:03;4.88;;;2.30;;
36205;SDS011;22242;48.796;9.930;2023-10-13T11:17:40;6.10;;;3.00;;
36205;SDS011;22242;48.796;9.930;2023-10-13T11:20:16;4.10;;;2.30;;
36205;SDS011;22242;48.796;9.930;2023-10-13T11:22:51;6.90;;;2.75;;
36205;SDS011;22242;48.796;9.930;2023-10-13T11:25:22;4.43;;;2.40;;
36205;SDS011;22242;48.796;9.930;2023-10-13T11:27:55;6.95;;;2.78;;
36205;SDS011;22242;48.796;9.930;2023-10-13T11:30:25;4.70;;;2.47;;
36205;SDS011;22242;48.796;9.930;2023-10-13T11:33:07;3.75;;;2.40;;
36205;SDS011;22242;48.796;9.930;2023-10-13T11:35:35;5.88;;;2.40;;
36205;SDS011;22242;48.796;9.930;2023-10-13T11:38:21;5.97;;;2.72;;
36205;SDS011;22242;48.796;9.930;2023-10-13T11:40:52;3.50;;;2.15;;
36205;SDS011;22242;48.796;9.930;2023-10-13T11:43:34;8.07;;;2.35;;
36205;SDS011;22242;48.796;9.930;2023-10-13T11:46:19;8.02;;;2.40;;
36205;SDS011;22242;48.796;9.930;2023-10-13T11:49:01;5.88;;;2.60;;
36205;SDS011;22242;48.796;9.930;2023-10-13T11:51:42;6.80;;;2.78;;
36205;SDS011;22242;48.796;9.930;2023-10-13T11:54:11;7.68;;;2.10;;
36205;SDS011;22242;48.796;9.930;2023-10-13T11:56:39;4.63;;;2.45;;
36205;SDS011;22242;48.796;9.930;2023-10-13T11:59:06;8.15;;;2.63;;
36205;SDS011;22242;48.796;9.930;2023-10-13T12:01:43;10.48;;;2.60;;
36205;SDS011;22242;48.796;9.930;2023-10-13T12:04:28;3.72;;;2.13;;
36205;SDS011;22242;48.796;9.930;2023-10-13T12:07:06;8.50;;;3.08;;
36205;SDS011;22242;48.796;9.930;2023-10-13T12:09:43;9.13;;;3.00;;
36205;SDS011;22242;48.796;9.930;2023-10-13T12:12:28;4.25;;;2.38;;
36205;SDS011;22242;48.796;9.930;2023-10-13T12:14:57;4.85;;;2.72;;
36205;SDS011;22242;48.796;9.930;2023-10-13T12:17:36;8.70;;;3.05;;
36205;SDS011;22242;48.796;9.930;2023-10-13T12:20:05;8.60;;;2.70;;
36205;SDS011;22242;48.796;9.930;2023-10-13T12:22:36;10.82;;;3.30;;
36205;SDS011;22242;48.796;9.930;2023-10-13T12:25:04;7.85;;;2.63;;
36205;SDS011;22242;48.796;9.930;2023-10-13T12:27:44;10.38;;;3.63;;
36205;SDS011;22242;48.796;9.930;2023-10-13T12:30:13;6.05;;;2.55;;
36205;SDS011;22242;48.796;9.930;2023-10-13T12:32:49;8.95;;;2.92;;
36205;SDS011;22242;48.796;9.930;2023-10-13T12:35:24;7.40;;;3.15;;
36205;SDS011;22242;48.796;9.930;2023-10-13T12:38:00;4.57;;;2.20;;
36205;SDS011;22242;48.796;9.930;2023-10-13T12:40:31;8.43;;;2.78;;
36205;SDS011;22242;48.796;9.930;2023-10-13T12:43:15;8.82;;;2.83;;
36205;SDS011;22242;48.796;9.930;2023-10-13T12:46:00;8.18;;;3.10;;
36205;SDS011;22242;48.796;9.930;2023-10-13T12:48:46;4.65;;;2.47;;
36205;SDS011;22242;48.796;9.930;2023-10-13T12:51:29;9.30;;;3.17;;
36205;SDS011;22242;48.796;9.930;2023-10-13T12:54:16;6.07;;;2.38;;
36205;SDS011;22242;48.796;9.930;2023-10-13T12:56:48;5.28;;;2.70;;
36205;SDS011;22242;48.796;9.930;2023-10-13T12:59:22;8.43;;;2.63;;
36205;SDS011;22242;48.796;9.930;2023-10-13T13:01:52;5.40;;;2.35;;
36205;SDS011;22242;48.796;9.930;2023-10-13T13:04:20;5.53;;;2.22;;
36205;SDS011;22242;48.796;9.930;2023-10-13T13:06:49;7.03;;;2.47;;
36205;SDS011;22242;48.796;9.930;2023-10-13T13:09:19;7.43;;;2.45;;
36205;SDS011;22242;48.796;9.930;2023-10-13T13:11:51;4.25;;;2.45;;
36205;SDS011;22242;48.796;9.930;2023-10-13T13:14:22;7.03;;;3.15;;
36205;SDS011;22242;48.796;9.930;2023-10-13T13:16:54;6.78;;;2.97;;
36205;SDS011;22242;48.796;9.930;2023-10-13T13:19:25;7.10;;;3.05;;
36205;SDS011;22242;48.796;9.930;2023-10-13T13:21:52;6.55;;;2.60;;
36205;SDS011;22242;48.796;9.930;2023-10-13T13:24:20;5.65;;;2.30;;
36205;SDS011;22242;48.796;9.930;2023-10-13T13:26:49;6.80;;;2.50;;
36205;SDS011;22242;48.796;9.930;2023-10-13T13:29:20;8.43;;;2.30;;
36205;SDS011;22242;48.796;9.930;2023-10-13T13:31:47;6.18;;;2.65;;
36205;SDS011;22242;48.796;9.930;2023-10-13T13:34:14;7.65;;;2.85;;
36205;SDS011;22242;48.796;9.930;2023-10-13T13:36:43;7.20;;;2.63;;
36205;SDS011;22242;48.796;9.930;2023-10-13T13:39:14;5.40;;;2.70;;
36205;SDS011;22242;48.796;9.930;2023-10-13T13:41:44;6.45;;;2.58;;
36205;SDS011;22242;48.796;9.930;2023-10-13T13:44:11;5.07;;;2.65;;
36205;SDS011;22242;48.796;9.930;2023-10-13T13:46:39;11.52;;;3.30;;
36205;SDS011;22242;48.796;9.930;2023-10-13T13:49:10;8.48;;;2.35;;
36205;SDS011;22242;48.796;9.930;2023-10-13T13:51:46;5.15;;;2.45;;
36205;SDS011;22242;48.796;9.930;2023-10-13T13:54:17;3.13;;;2.13;;
36205;SDS011;22242;48.796;9.930;2023-10-13T13:56:46;10.73;;;2.83;;
36205;SDS011;22242;48.796;9.930;2023-10-13T13:59:13;5.60;;;2.30;;
36205;SDS011;22242;48.796;9.930;2023-10-13T14:01:45;7.95;;;2.88;;
36205;SDS011;22242;48.796;9.930;2023-10-13T14:04:12;7.63;;;2.50;;
36205;SDS011;22242;48.796;9.930;2023-10-13T14:06:43;8.45;;;2.55;;
36205;SDS011;22242;48.796;9.930;2023-10-13T14:09:12;8.30;;;2.35;;
36205;SDS011;22242;48.796;9.930;2023-10-13T14:11:58;6.20;;;2.90;;
36205;SDS011;22242;48.796;9.930;2023-10-13T14:14:42;6.70;;;2.67;;
36205;SDS011;22242;48.796;9.930;2023-10-13T14:17:14;10.93;;;2.85;;
36205;SDS011;22242;48.796;9.930;2023-10-13T14:19:41;5.25;;;2.50;;
36205;SDS011;22242;48.796;9.930;2023-10-13T14:22:11;8.07;;;2.50;;
36205;SDS011;22242;48.796;9.930;2023-10-13T14:24:40;4.65;;;2.70;;
36205;SDS011;22242;48.796;9.930;2023-10-13T14:27:12;9.35;;;2.92;;
36205;SDS011;22242;48.796;9.930;2023-10-13T14:29:42;10.20;;;2.92;;
36205;SDS011;22242;48.796;9.930;2023-10-13T14:32:10;8.35;;;3.08;;
36205;SDS011;22242;48.796;9.930;2023-10-13T14:34:41;5.53;;;2.80;;
36205;SDS011;22242;48.796;9.930;2023-10-13T14:37:09;6.43;;;2.78;;
36205;SDS011;22242;48.796;9.930;2023-10-13T14:39:39;7.93;;;3.00;;
36205;SDS011;22242;48.796;9.930;2023-10-13T14:42:06;7.18;;;3.15;;
36205;SDS011;22242;48.796;9.930;2023-10-13T14:44:34;6.57;;;2.65;;
36205;SDS011;22242;48.796;9.930;2023-10-13T14:47:02;4.22;;;2.88;;
36205;SDS011;22242;48.796;9.930;2023-10-13T14:49:30;9.05;;;2.70;;
36205;SDS011;22242;48.796;9.930;2023-10-13T14:52:00;7.35;;;2.50;;
36205;SDS011;22242;48.796;9.930;2023-10-13T14:54:27;8.57;;;2.75;;
36205;SDS011;22242;48.796;9.930;2023-10-13T14:57:02;7.07;;;2.70;;
36205;SDS011;22242;48.796;9.930;2023-10-13T14:59:29;3.88;;;2.45;;
36205;SDS011;22242;48.796;9.930;2023-10-13T15:02:03;4.40;;;2.63;;
36205;SDS011;22242;48.796;9.930;2023-10-13T15:04:31;6.75;;;2.80;;
36205;SDS011;22242;48.796;9.930;2023-10-13T15:06:59;5.45;;;2.40;;
36205;SDS011;22242;48.796;9.930;2023-10-13T15:09:28;5.38;;;3.15;;
36205;SDS011;22242;48.796;9.930;2023-10-13T15:11:55;7.78;;;2.58;;
36205;SDS011;22242;48.796;9.930;2023-10-13T15:14:23;4.93;;;2.53;;
36205;SDS011;22242;48.796;9.930;2023-10-13T15:16:51;10.15;;;2.78;;
36205;SDS011;22242;48.796;9.930;2023-10-13T15:19:18;6.57;;;2.90;;
36205;SDS011;22242;48.796;9.930;2023-10-13T15:24:30;6.05;;;2.65;;
36205;SDS011;22242;48.796;9.930;2023-10-13T15:27:01;8.75;;;3.00;;
36205;SDS011;22242;48.796;9.930;2023-10-13T15:29:35;7.40;;;3.33;;
36205;SDS011;22242;48.796;9.930;2023-10-13T15:32:03;6.65;;;2.60;;
36205;SDS011;22242;48.796;9.930;2023-10-13T15:34:51;8.13;;;2.92;;
36205;SDS011;22242;48.796;9.930;2023-10-13T15:37:18;5.72;;;2.35;;
36205;SDS011;22242;48.796;9.930;2023-10-13T15:39:50;8.85;;;2.78;;
36205;SDS011;22242;48.796;9.930;2023-10-13T15:42:18;5.25;;;2.75;;
36205;SDS011;22242;48.796;9.930;2023-10-13T15:44:48;7.50;;;2.63;;